sensor_id;sensor_type;location;lat;lon;timestamp;pressure;altitude;pressure_sealevel;temperature;humidity
5296;BME280;2670;42.720;23.336;2023-03-15T00:00:21;-22618.00;;;6.05;56.40
5296;BME280;2670;42.720;23.336;2023-03-15T00:02:48;-22615.03;;;5.95;56.07
5296;BME280;2670;42.720;23.336;2023-03-15T00:05:14;-22615.19;;;5.95;57.37
5296;BME280;2670;42.720;23.336;2023-03-15T00:07:41;-22613.38;;;5.89;56.82
5296;BME280;2670;42.720;23.336;2023-03-15T00:10:09;-22613.38;;;5.89;56.68
5296;BME280;2670;42.720;23.336;2023-03-15T00:12:38;-22612.03;;;5.85;56.43
5296;BME280;2670;42.720;23.336;2023-03-15T00:15:07;-22610.13;;;5.78;57.09
5296;BME280;2670;42.720;23.336;2023-03-15T00:17:34;-22611.00;;;5.81;56.50
5296;BME280;2670;42.720;23.336;2023-03-15T00:20:00;-22610.72;;;5.80;56.96
5296;BME280;2670;42.720;23.336;2023-03-15T00:22:28;-22610.72;;;5.80;57.55
5296;BME280;2670;42.720;23.336;2023-03-15T00:24:56;-22610.25;;;5.79;58.04
5296;BME280;2670;42.720;23.336;2023-03-15T00:27:22;-22609.66;;;5.77;58.23
5296;BME280;2670;42.720;23.336;2023-03-15T00:29:51;-22610.72;;;5.80;58.25
5296;BME280;2670;42.720;23.336;2023-03-15T00:32:17;-22606.53;;;5.66;58.53
5296;BME280;2670;42.720;23.336;2023-03-15T00:34:44;-22606.97;;;5.67;59.00
5296;BME280;2670;42.720;23.336;2023-03-15T00:37:13;-22607.28;;;5.68;59.84
5296;BME280;2670;42.720;23.336;2023-03-15T00:39:41;-22608.47;;;5.72;59.45
5296;BME280;2670;42.720;23.336;2023-03-15T00:42:10;-22606.84;;;5.67;58.83
5296;BME280;2670;42.720;23.336;2023-03-15T00:44:40;-22606.09;;;5.64;58.88
5296;BME280;2670;42.720;23.336;2023-03-15T00:47:08;-22606.09;;;5.64;58.07
5296;BME280;2670;42.720;23.336;2023-03-15T00:49:35;-22604.75;;;5.60;57.86
5296;BME280;2670;42.720;23.336;2023-03-15T00:52:03;-22603.72;;;5.56;58.10
5296;BME280;2670;42.720;23.336;2023-03-15T00:54:30;-22604.59;;;5.59;57.52
5296;BME280;2670;42.720;23.336;2023-03-15T00:56:58;-22603.72;;;5.56;57.35
5296;BME280;2670;42.720;23.336;2023-03-15T00:59:24;-22604.75;;;5.60;57.38
5296;BME280;2670;42.720;23.336;2023-03-15T01:01:53;-22604.00;;;5.57;58.10
5296;BME280;2670;42.720;23.336;2023-03-15T01:04:21;-22603.56;;;5.56;57.67
5296;BME280;2670;42.720;23.336;2023-03-15T01:06:48;-22604.16;;;5.58;58.26
5296;BME280;2670;42.720;23.336;2023-03-15T01:09:15;-22604.16;;;5.58;58.08
5296;BME280;2670;42.720;23.336;2023-03-15T01:11:41;-22610.72;;;5.80;56.76
5296;BME280;2670;42.720;23.336;2023-03-15T01:14:08;-22607.88;;;5.70;56.19
5296;BME280;2670;42.720;23.336;2023-03-15T01:16:35;-22603.41;;;5.55;57.12
5296;BME280;2670;42.720;23.336;2023-03-15T01:19:02;-22603.84;;;5.57;57.05
5296;BME280;2670;42.720;23.336;2023-03-15T01:21:30;-22604.16;;;5.58;57.29
5296;BME280;2670;42.720;23.336;2023-03-15T01:23:57;-22603.72;;;5.56;57.35
5296;BME280;2670;42.720;23.336;2023-03-15T01:26:24;-22602.97;;;5.54;57.61
5296;BME280;2670;42.720;23.336;2023-03-15T01:28:51;-22602.22;;;5.51;58.05
5296;BME280;2670;42.720;23.336;2023-03-15T01:31:20;-22604.75;;;5.60;58.36
5296;BME280;2670;42.720;23.336;2023-03-15T01:33:47;-22603.84;;;5.57;57.96
5296;BME280;2670;42.720;23.336;2023-03-15T01:36:13;-22603.56;;;5.56;57.66
5296;BME280;2670;42.720;23.336;2023-03-15T01:38:42;-22605.34;;;5.62;57.45
5296;BME280;2670;42.720;23.336;2023-03-15T01:41:10;-22605.19;;;5.61;57.88
5296;BME280;2670;42.720;23.336;2023-03-15T01:43:37;-22603.56;;;5.56;57.50
5296;BME280;2670;42.720;23.336;2023-03-15T01:46:23;-22601.78;;;5.49;58.32
5296;BME280;2670;42.720;23.336;2023-03-15T01:48:54;-22602.06;;;5.50;59.57
5296;BME280;2670;42.720;23.336;2023-03-15T01:51:24;-22601.91;;;5.50;59.88
5296;BME280;2670;42.720;23.336;2023-03-15T01:53:57;-22600.13;;;5.44;59.45
5296;BME280;2670;42.720;23.336;2023-03-15T01:56:26;-22601.91;;;5.50;59.08
5296;BME280;2670;42.720;23.336;2023-03-15T01:58:56;-22600.88;;;5.46;58.90
5296;BME280;2670;42.720;23.336;2023-03-15T02:01:24;-22598.50;;;5.38;58.88
5296;BME280;2670;42.720;23.336;2023-03-15T02:03:54;-22599.09;;;5.40;58.50
5296;BME280;2670;42.720;23.336;2023-03-15T02:06:23;-22596.84;;;5.33;58.96
5296;BME280;2670;42.720;23.336;2023-03-15T02:08:53;-22595.97;;;5.30;58.66
5296;BME280;2670;42.720;23.336;2023-03-15T02:11:23;-22596.41;;;5.31;59.25
5296;BME280;2670;42.720;23.336;2023-03-15T02:13:52;-22596.56;;;5.32;59.24
5296;BME280;2670;42.720;23.336;2023-03-15T02:16:20;-22595.97;;;5.30;60.10
5296;BME280;2670;42.720;23.336;2023-03-15T02:18:47;-22595.66;;;5.29;59.72
5296;BME280;2670;42.720;23.336;2023-03-15T02:21:25;-22593.56;;;5.21;60.11
5296;BME280;2670;42.720;23.336;2023-03-15T02:24:03;-22593.72;;;5.22;60.49
5296;BME280;2670;42.720;23.336;2023-03-15T02:26:40;-22591.78;;;5.15;61.09
5296;BME280;2670;42.720;23.336;2023-03-15T02:29:09;-22590.00;;;5.09;61.54
5296;BME280;2670;42.720;23.336;2023-03-15T02:31:36;-22589.25;;;5.07;62.20
5296;BME280;2670;42.720;23.336;2023-03-15T02:34:05;-22589.09;;;5.06;62.57
5296;BME280;2670;42.720;23.336;2023-03-15T02:36:33;-22589.41;;;5.07;61.79
5296;BME280;2670;42.720;23.336;2023-03-15T02:39:00;-22587.16;;;4.99;62.05
5296;BME280;2670;42.720;23.336;2023-03-15T02:41:29;-22585.97;;;4.95;62.89
5296;BME280;2670;42.720;23.336;2023-03-15T02:44:01;-22587.91;;;5.02;62.92
5296;BME280;2670;42.720;23.336;2023-03-15T02:46:33;-22587.47;;;5.00;63.25
5296;BME280;2670;42.720;23.336;2023-03-15T02:49:01;-22585.84;;;4.95;64.80
5296;BME280;2670;42.720;23.336;2023-03-15T02:51:28;-22587.47;;;5.00;64.12
5296;BME280;2670;42.720;23.336;2023-03-15T02:53:55;-22585.38;;;4.93;64.51
5296;BME280;2670;42.720;23.336;2023-03-15T02:56:22;-22583.88;;;4.88;65.13
5296;BME280;2670;42.720;23.336;2023-03-15T02:58:48;-22583.59;;;4.87;65.12
5296;BME280;2670;42.720;23.336;2023-03-15T03:01:16;-22580.31;;;4.76;65.17
5296;BME280;2670;42.720;23.336;2023-03-15T03:03:45;-22581.50;;;4.80;64.27
5296;BME280;2670;42.720;23.336;2023-03-15T03:06:13;-22580.63;;;4.77;64.05
5296;BME280;2670;42.720;23.336;2023-03-15T03:08:41;-22579.72;;;4.74;63.12
5296;BME280;2670;42.720;23.336;2023-03-15T03:11:12;-22578.97;;;4.71;62.17
5296;BME280;2670;42.720;23.336;2023-03-15T03:13:39;-22581.66;;;4.81;61.10
5296;BME280;2670;42.720;23.336;2023-03-15T03:16:06;-22581.22;;;4.79;60.62
5296;BME280;2670;42.720;23.336;2023-03-15T03:18:33;-22580.63;;;4.77;60.58
5296;BME280;2670;42.720;23.336;2023-03-15T03:21:03;-22581.06;;;4.79;59.79
5296;BME280;2670;42.720;23.336;2023-03-15T03:23:31;-22583.44;;;4.87;60.79
5296;BME280;2670;42.720;23.336;2023-03-15T03:26:00;-22579.41;;;4.73;60.65
5296;BME280;2670;42.720;23.336;2023-03-15T03:28:28;-22577.19;;;4.65;60.09
5296;BME280;2670;42.720;23.336;2023-03-15T03:30:55;-22578.53;;;4.70;59.87
5296;BME280;2670;42.720;23.336;2023-03-15T03:33:22;-22578.97;;;4.71;59.80
5296;BME280;2670;42.720;23.336;2023-03-15T03:35:50;-22579.41;;;4.73;59.44
5296;BME280;2670;42.720;23.336;2023-03-15T03:38:19;-22576.72;;;4.64;58.99
5296;BME280;2670;42.720;23.336;2023-03-15T03:40:46;-22576.88;;;4.64;59.38
5296;BME280;2670;42.720;23.336;2023-03-15T03:43:13;-22578.97;;;4.71;59.58
5296;BME280;2670;42.720;23.336;2023-03-15T03:45:39;-22578.53;;;4.70;59.50
5296;BME280;2670;42.720;23.336;2023-03-15T03:48:06;-22579.28;;;4.72;59.58
5296;BME280;2670;42.720;23.336;2023-03-15T03:50:33;-22577.63;;;4.67;60.45
5296;BME280;2670;42.720;23.336;2023-03-15T03:53:00;-22578.81;;;4.71;59.88
5296;BME280;2670;42.720;23.336;2023-03-15T03:55:28;-22578.97;;;4.71;59.64
5296;BME280;2670;42.720;23.336;2023-03-15T03:57:55;-22580.16;;;4.75;59.97
5296;BME280;2670;42.720;23.336;2023-03-15T04:00:21;-22584.50;;;4.90;58.94
5296;BME280;2670;42.720;23.336;2023-03-15T04:02:48;-22581.34;;;4.80;59.19
5296;BME280;2670;42.720;23.336;2023-03-15T04:05:18;-22582.69;;;4.84;59.85
5296;BME280;2670;42.720;23.336;2023-03-15T04:07:45;-22582.41;;;4.83;60.36
5296;BME280;2670;42.720;23.336;2023-03-15T04:10:12;-22582.69;;;4.84;60.59
5296;BME280;2670;42.720;23.336;2023-03-15T04:12:41;-22582.41;;;4.83;61.58
5296;BME280;2670;42.720;23.336;2023-03-15T04:15:08;-22582.41;;;4.83;60.75
5296;BME280;2670;42.720;23.336;2023-03-15T04:17:35;-22582.25;;;4.83;60.29
5296;BME280;2670;42.720;23.336;2023-03-15T04:20:03;-22582.41;;;4.83;59.85
5296;BME280;2670;42.720;23.336;2023-03-15T04:22:31;-22580.47;;;4.77;59.69
5296;BME280;2670;42.720;23.336;2023-03-15T04:24:59;-22582.09;;;4.82;59.96
5296;BME280;2670;42.720;23.336;2023-03-15T04:27:26;-22584.34;;;4.90;58.58
5296;BME280;2670;42.720;23.336;2023-03-15T04:29:54;-22583.59;;;4.87;59.21
5296;BME280;2670;42.720;23.336;2023-03-15T04:32:22;-22581.22;;;4.79;59.09
5296;BME280;2670;42.720;23.336;2023-03-15T04:34:49;-22584.03;;;4.89;59.07
5296;BME280;2670;42.720;23.336;2023-03-15T04:37:17;-22584.03;;;4.89;59.67
5296;BME280;2670;42.720;23.336;2023-03-15T04:39:44;-22584.94;;;4.92;59.13
5296;BME280;2670;42.720;23.336;2023-03-15T04:42:10;-22584.78;;;4.91;59.42
5296;BME280;2670;42.720;23.336;2023-03-15T04:44:37;-22586.13;;;4.96;59.82
5296;BME280;2670;42.720;23.336;2023-03-15T04:47:05;-22583.28;;;4.86;60.71
5296;BME280;2670;42.720;23.336;2023-03-15T04:49:32;-22585.97;;;4.95;59.67
5296;BME280;2670;42.720;23.336;2023-03-15T04:51:59;-22586.88;;;4.98;58.81
5296;BME280;2670;42.720;23.336;2023-03-15T04:54:26;-22587.75;;;5.02;58.48
5296;BME280;2670;42.720;23.336;2023-03-15T04:56:53;-22588.22;;;5.03;58.62
5296;BME280;2670;42.720;23.336;2023-03-15T04:59:19;-22583.59;;;4.87;59.60
5296;BME280;2670;42.720;23.336;2023-03-15T05:01:46;-22584.03;;;4.89;60.22
5296;BME280;2670;42.720;23.336;2023-03-15T05:04:14;-22585.69;;;4.94;60.68
5296;BME280;2670;42.720;23.336;2023-03-15T05:06:41;-22585.97;;;4.95;61.51
5296;BME280;2670;42.720;23.336;2023-03-15T05:09:08;-22584.94;;;4.92;61.54
5296;BME280;2670;42.720;23.336;2023-03-15T05:11:43;-22587.63;;;5.01;60.71
5296;BME280;2670;42.720;23.336;2023-03-15T05:14:10;-22586.41;;;4.97;60.82
5296;BME280;2670;42.720;23.336;2023-03-15T05:16:37;-22585.69;;;4.94;60.39
5296;BME280;2670;42.720;23.336;2023-03-15T05:19:03;-22591.66;;;5.15;58.97
5296;BME280;2670;42.720;23.336;2023-03-15T05:21:31;-22587.16;;;4.99;59.58
5296;BME280;2670;42.720;23.336;2023-03-15T05:23:58;-22589.41;;;5.07;59.40
5296;BME280;2670;42.720;23.336;2023-03-15T05:26:25;-22590.31;;;5.10;59.03
5296;BME280;2670;42.720;23.336;2023-03-15T05:28:52;-22592.25;;;5.17;57.92
5296;BME280;2670;42.720;23.336;2023-03-15T05:31:19;-22591.03;;;5.13;58.04
5296;BME280;2670;42.720;23.336;2023-03-15T05:33:46;-22588.38;;;5.04;58.41
5296;BME280;2670;42.720;23.336;2023-03-15T05:36:13;-22594.19;;;5.23;57.83
5296;BME280;2670;42.720;23.336;2023-03-15T05:38:41;-22591.66;;;5.15;57.45
5296;BME280;2670;42.720;23.336;2023-03-15T05:41:08;-22591.19;;;5.13;57.43
5296;BME280;2670;42.720;23.336;2023-03-15T05:43:34;-22592.69;;;5.18;57.98
5296;BME280;2670;42.720;23.336;2023-03-15T05:46:01;-22595.06;;;5.27;57.55
5296;BME280;2670;42.720;23.336;2023-03-15T05:48:28;-22591.03;;;5.13;58.08
5296;BME280;2670;42.720;23.336;2023-03-15T05:50:56;-22591.50;;;5.14;57.93
5296;BME280;2670;42.720;23.336;2023-03-15T05:53:23;-22592.84;;;5.19;58.67
5296;BME280;2670;42.720;23.336;2023-03-15T05:55:51;-22594.19;;;5.23;57.96
5296;BME280;2670;42.720;23.336;2023-03-15T05:58:18;-22593.13;;;5.20;58.56
5296;BME280;2670;42.720;23.336;2023-03-15T06:00:44;-22592.84;;;5.19;59.00
5296;BME280;2670;42.720;23.336;2023-03-15T06:03:11;-22594.63;;;5.25;58.48
5296;BME280;2670;42.720;23.336;2023-03-15T06:05:38;-22597.44;;;5.35;58.41
5296;BME280;2670;42.720;23.336;2023-03-15T06:08:05;-22598.63;;;5.39;58.64
5296;BME280;2670;42.720;23.336;2023-03-15T06:10:31;-22596.56;;;5.32;58.34
5296;BME280;2670;42.720;23.336;2023-03-15T06:13:00;-22595.81;;;5.29;59.33
5296;BME280;2670;42.720;23.336;2023-03-15T06:15:26;-22596.25;;;5.31;60.14
5296;BME280;2670;42.720;23.336;2023-03-15T06:17:53;-22599.53;;;5.42;60.35
5296;BME280;2670;42.720;23.336;2023-03-15T06:20:20;-22601.03;;;5.47;60.41
5296;BME280;2670;42.720;23.336;2023-03-15T06:22:46;-22601.03;;;5.47;61.36
5296;BME280;2670;42.720;23.336;2023-03-15T06:25:13;-22603.25;;;5.55;60.90
5296;BME280;2670;42.720;23.336;2023-03-15T06:27:40;-22605.34;;;5.62;61.17
5296;BME280;2670;42.720;23.336;2023-03-15T06:30:09;-22605.94;;;5.64;59.34
5296;BME280;2670;42.720;23.336;2023-03-15T06:32:36;-22607.59;;;5.69;60.26
5296;BME280;2670;42.720;23.336;2023-03-15T06:35:03;-22607.44;;;5.69;59.21
5296;BME280;2670;42.720;23.336;2023-03-15T06:37:31;-22608.03;;;5.71;59.76
5296;BME280;2670;42.720;23.336;2023-03-15T06:39:57;-22606.69;;;5.66;59.01
5296;BME280;2670;42.720;23.336;2023-03-15T06:42:24;-22607.72;;;5.70;59.61
5296;BME280;2670;42.720;23.336;2023-03-15T06:44:51;-22613.25;;;5.89;61.79
5296;BME280;2670;42.720;23.336;2023-03-15T06:47:19;-22618.00;;;6.05;60.68
5296;BME280;2670;42.720;23.336;2023-03-15T06:49:46;-22620.25;;;6.13;60.50
5296;BME280;2670;42.720;23.336;2023-03-15T06:52:14;-22623.97;;;6.26;58.90
5296;BME280;2670;42.720;23.336;2023-03-15T06:54:41;-22625.91;;;6.32;58.10
5296;BME280;2670;42.720;23.336;2023-03-15T06:57:08;-22626.19;;;6.33;58.03
5296;BME280;2670;42.720;23.336;2023-03-15T06:59:35;-22630.06;;;6.46;59.30
5296;BME280;2670;42.720;23.336;2023-03-15T07:02:02;-22630.50;;;6.48;57.33
5296;BME280;2670;42.720;23.336;2023-03-15T07:04:30;-22634.06;;;6.60;59.66
5296;BME280;2670;42.720;23.336;2023-03-15T07:06:56;-22634.38;;;6.61;58.21
5296;BME280;2670;42.720;23.336;2023-03-15T07:09:23;-22632.28;;;6.54;58.92
5296;BME280;2670;42.720;23.336;2023-03-15T07:11:50;-22633.63;;;6.59;58.74
5296;BME280;2670;42.720;23.336;2023-03-15T07:14:16;-22631.69;;;6.52;58.70
5296;BME280;2670;42.720;23.336;2023-03-15T07:16:43;-22634.06;;;6.60;59.20
5296;BME280;2670;42.720;23.336;2023-03-15T07:19:10;-22637.81;;;6.73;58.21
5296;BME280;2670;42.720;23.336;2023-03-15T07:21:38;-22639.13;;;6.78;59.51
5296;BME280;2670;42.720;23.336;2023-03-15T07:24:05;-22641.22;;;6.85;58.69
5296;BME280;2670;42.720;23.336;2023-03-15T07:26:32;-22645.97;;;7.01;61.43
5296;BME280;2670;42.720;23.336;2023-03-15T07:28:58;-22650.59;;;7.17;57.14
5296;BME280;2670;42.720;23.336;2023-03-15T07:31:25;-22652.69;;;7.24;57.45
5296;BME280;2670;42.720;23.336;2023-03-15T07:33:52;-22654.47;;;7.30;58.68
5296;BME280;2670;42.720;23.336;2023-03-15T07:36:19;-22659.97;;;7.49;57.59
5296;BME280;2670;42.720;23.336;2023-03-15T07:38:47;-22661.75;;;7.55;57.33
5296;BME280;2670;42.720;23.336;2023-03-15T07:41:14;-22665.16;;;7.67;55.92
5296;BME280;2670;42.720;23.336;2023-03-15T07:43:41;-22668.13;;;7.77;56.49
5296;BME280;2670;42.720;23.336;2023-03-15T07:46:07;-22668.28;;;7.78;55.32
5296;BME280;2670;42.720;23.336;2023-03-15T07:48:34;-22669.03;;;7.80;54.33
5296;BME280;2670;42.720;23.336;2023-03-15T07:51:01;-22674.97;;;8.01;55.27
5296;BME280;2670;42.720;23.336;2023-03-15T07:53:28;-22676.44;;;8.06;53.41
5296;BME280;2670;42.720;23.336;2023-03-15T07:55:56;-22674.97;;;8.01;52.97
5296;BME280;2670;42.720;23.336;2023-03-15T07:58:22;-22675.56;;;8.03;53.61
5296;BME280;2670;42.720;23.336;2023-03-15T08:00:53;-22677.34;;;8.09;53.29
5296;BME280;2670;42.720;23.336;2023-03-15T08:03:20;-22680.31;;;8.19;55.29
5296;BME280;2670;42.720;23.336;2023-03-15T08:05:46;-22683.44;;;8.30;54.65
5296;BME280;2670;42.720;23.336;2023-03-15T08:08:13;-22689.53;;;8.51;52.72
5296;BME280;2670;42.720;23.336;2023-03-15T08:10:40;-22691.91;;;8.59;52.91
5296;BME280;2670;42.720;23.336;2023-03-15T08:13:09;-22690.13;;;8.53;55.16
5296;BME280;2670;42.720;23.336;2023-03-15T08:15:35;-22693.53;;;8.64;55.08
5296;BME280;2670;42.720;23.336;2023-03-15T08:18:02;-22694.28;;;8.67;52.69
5296;BME280;2670;42.720;23.336;2023-03-15T08:20:30;-22695.91;;;8.72;52.20
5296;BME280;2670;42.720;23.336;2023-03-15T08:22:58;-22697.53;;;8.78;54.41
5296;BME280;2670;42.720;23.336;2023-03-15T08:25:26;-22700.94;;;8.90;54.53
5296;BME280;2670;42.720;23.336;2023-03-15T08:27:53;-22706.16;;;9.08;52.33
5296;BME280;2670;42.720;23.336;2023-03-15T08:30:22;-22710.91;;;9.24;51.51
5296;BME280;2670;42.720;23.336;2023-03-15T08:32:49;-22710.59;;;9.23;50.92
5296;BME280;2670;42.720;23.336;2023-03-15T08:35:18;-22714.59;;;9.37;50.49
5296;BME280;2670;42.720;23.336;2023-03-15T08:37:45;-22712.22;;;9.29;49.81
5296;BME280;2670;42.720;23.336;2023-03-15T08:40:13;-22707.94;;;9.14;49.72
5296;BME280;2670;42.720;23.336;2023-03-15T08:42:43;-22716.69;;;9.44;50.51
5296;BME280;2670;42.720;23.336;2023-03-15T08:45:10;-22719.19;;;9.53;51.54
5296;BME280;2670;42.720;23.336;2023-03-15T08:47:38;-22720.69;;;9.58;50.64
5296;BME280;2670;42.720;23.336;2023-03-15T08:50:10;-22722.31;;;9.63;48.84
5296;BME280;2670;42.720;23.336;2023-03-15T08:52:37;-22721.13;;;9.59;49.26
5296;BME280;2670;42.720;23.336;2023-03-15T08:55:06;-22730.75;;;9.92;52.14
5296;BME280;2670;42.720;23.336;2023-03-15T08:57:33;-22731.34;;;9.94;48.65
5296;BME280;2670;42.720;23.336;2023-03-15T09:00:00;-22730.03;;;9.90;49.13
5296;BME280;2670;42.720;23.336;2023-03-15T09:02:32;-22727.66;;;9.82;51.60
5296;BME280;2670;42.720;23.336;2023-03-15T09:05:00;-22728.09;;;9.83;50.33
5296;BME280;2670;42.720;23.336;2023-03-15T09:07:27;-22730.16;;;9.90;49.91
5296;BME280;2670;42.720;23.336;2023-03-15T09:09:53;-22727.78;;;9.82;50.35
5296;BME280;2670;42.720;23.336;2023-03-15T09:12:20;-22730.75;;;9.92;50.94
5296;BME280;2670;42.720;23.336;2023-03-15T09:14:47;-22733.44;;;10.02;49.72
5296;BME280;2670;42.720;23.336;2023-03-15T09:17:14;-22736.41;;;10.12;50.31
5296;BME280;2670;42.720;23.336;2023-03-15T09:19:40;-22736.09;;;10.11;50.22
5296;BME280;2670;42.720;23.336;2023-03-15T09:22:09;-22735.50;;;10.09;50.74
5296;BME280;2670;42.720;23.336;2023-03-15T09:24:36;-22735.94;;;10.10;50.70
5296;BME280;2670;42.720;23.336;2023-03-15T09:27:03;-22734.19;;;10.04;50.12
5296;BME280;2670;42.720;23.336;2023-03-15T09:29:30;-22734.47;;;10.05;50.46
5296;BME280;2670;42.720;23.336;2023-03-15T09:31:56;-22739.50;;;10.22;50.06
5296;BME280;2670;42.720;23.336;2023-03-15T09:34:26;-22739.50;;;10.22;51.34
5296;BME280;2670;42.720;23.336;2023-03-15T09:36:53;-22741.13;;;10.28;50.65
5296;BME280;2670;42.720;23.336;2023-03-15T09:39:21;-22743.50;;;10.36;50.44
5296;BME280;2670;42.720;23.336;2023-03-15T09:41:50;-22745.59;;;10.43;50.50
5296;BME280;2670;42.720;23.336;2023-03-15T09:44:38;-22748.41;;;10.53;50.71
5296;BME280;2670;42.720;23.336;2023-03-15T09:47:18;-22750.78;;;10.61;51.08
5296;BME280;2670;42.720;23.336;2023-03-15T09:49:51;-22756.25;;;10.80;49.27
5296;BME280;2670;42.720;23.336;2023-03-15T09:52:25;-22755.38;;;10.77;48.25
5296;BME280;2670;42.720;23.336;2023-03-15T09:54:59;-22757.88;;;10.86;49.87
5296;BME280;2670;42.720;23.336;2023-03-15T09:57:35;-22757.88;;;10.86;49.55
5296;BME280;2670;42.720;23.336;2023-03-15T10:00:06;-22761.28;;;10.97;47.69
5296;BME280;2670;42.720;23.336;2023-03-15T10:02:38;-22755.38;;;10.77;48.94
5296;BME280;2670;42.720;23.336;2023-03-15T10:05:11;-22757.28;;;10.84;50.03
5296;BME280;2670;42.720;23.336;2023-03-15T10:07:41;-22758.78;;;10.89;49.35
5296;BME280;2670;42.720;23.336;2023-03-15T10:10:15;-22758.47;;;10.88;49.85
5296;BME280;2670;42.720;23.336;2023-03-15T10:12:45;-22756.69;;;10.82;50.06
5296;BME280;2670;42.720;23.336;2023-03-15T10:15:29;-22759.06;;;10.90;49.01
5296;BME280;2670;42.720;23.336;2023-03-15T10:18:13;-22758.19;;;10.87;48.87
5296;BME280;2670;42.720;23.336;2023-03-15T10:20:46;-22763.38;;;11.05;50.40
5296;BME280;2670;42.720;23.336;2023-03-15T10:23:19;-22762.63;;;11.02;49.09
5296;BME280;2670;42.720;23.336;2023-03-15T10:25:50;-22768.09;;;11.21;48.87
5296;BME280;2670;42.720;23.336;2023-03-15T10:28:22;-22770.91;;;11.31;49.01
5296;BME280;2670;42.720;23.336;2023-03-15T10:30:50;-22768.09;;;11.21;48.23
5296;BME280;2670;42.720;23.336;2023-03-15T10:33:22;-22768.97;;;11.24;48.10
5296;BME280;2670;42.720;23.336;2023-03-15T10:35:55;-22769.28;;;11.25;47.13
5296;BME280;2670;42.720;23.336;2023-03-15T10:38:23;-22769.72;;;11.27;47.15
5296;BME280;2670;42.720;23.336;2023-03-15T10:40:53;-22770.16;;;11.28;46.73
5296;BME280;2670;42.720;23.336;2023-03-15T10:43:22;-22765.44;;;11.12;48.86
5296;BME280;2670;42.720;23.336;2023-03-15T10:46:00;-22768.69;;;11.23;49.04
5296;BME280;2670;42.720;23.336;2023-03-15T10:48:28;-22765.72;;;11.13;47.91
5296;BME280;2670;42.720;23.336;2023-03-15T10:50:56;-22765.28;;;11.11;48.99
5296;BME280;2670;42.720;23.336;2023-03-15T10:53:23;-22767.06;;;11.17;48.96
5296;BME280;2670;42.720;23.336;2023-03-15T10:55:59;-22768.84;;;11.23;47.23
5296;BME280;2670;42.720;23.336;2023-03-15T10:58:27;-22764.53;;;11.09;48.40
5296;BME280;2670;42.720;23.336;2023-03-15T11:00:59;-22765.88;;;11.13;47.73
5296;BME280;2670;42.720;23.336;2023-03-15T11:03:27;-22766.91;;;11.17;48.67
5296;BME280;2670;42.720;23.336;2023-03-15T11:05:55;-22771.06;;;11.31;49.40
5296;BME280;2670;42.720;23.336;2023-03-15T11:08:24;-22770.03;;;11.28;48.44
5296;BME280;2670;42.720;23.336;2023-03-15T11:11:03;-22770.91;;;11.31;48.34
5296;BME280;2670;42.720;23.336;2023-03-15T11:13:31;-22771.19;;;11.32;48.77
5296;BME280;2670;42.720;23.336;2023-03-15T11:16:00;-22766.91;;;11.17;48.03
5296;BME280;2670;42.720;23.336;2023-03-15T11:18:32;-22769.56;;;11.26;47.26
5296;BME280;2670;42.720;23.336;2023-03-15T11:21:03;-22771.06;;;11.31;46.80
5296;BME280;2670;42.720;23.336;2023-03-15T11:23:35;-22768.69;;;11.23;47.56
5296;BME280;2670;42.720;23.336;2023-03-15T11:26:03;-22769.72;;;11.27;48.55
5296;BME280;2670;42.720;23.336;2023-03-15T11:28:32;-22772.25;;;11.35;48.79
5296;BME280;2670;42.720;23.336;2023-03-15T11:31:02;-22774.47;;;11.43;47.07
5296;BME280;2670;42.720;23.336;2023-03-15T11:33:36;-22773.28;;;11.39;46.92
5296;BME280;2670;42.720;23.336;2023-03-15T11:36:09;-22772.84;;;11.37;46.28
5296;BME280;2670;42.720;23.336;2023-03-15T11:38:39;-22775.78;;;11.47;47.00
5296;BME280;2670;42.720;23.336;2023-03-15T11:41:23;-22779.63;;;11.61;46.23
5296;BME280;2670;42.720;23.336;2023-03-15T11:44:02;-22776.81;;;11.51;46.05
5296;BME280;2670;42.720;23.336;2023-03-15T11:46:33;-22776.69;;;11.51;46.72
5296;BME280;2670;42.720;23.336;2023-03-15T11:49:09;-22774.59;;;11.43;47.61
5296;BME280;2670;42.720;23.336;2023-03-15T11:51:39;-22775.78;;;11.47;46.57
5296;BME280;2670;42.720;23.336;2023-03-15T11:54:12;-22771.94;;;11.34;47.29
5296;BME280;2670;42.720;23.336;2023-03-15T11:56:52;-22776.22;;;11.49;46.08
5296;BME280;2670;42.720;23.336;2023-03-15T11:59:23;-22775.50;;;11.46;46.59
5296;BME280;2670;42.720;23.336;2023-03-15T12:01:56;-22775.94;;;11.48;46.49
5296;BME280;2670;42.720;23.336;2023-03-15T12:04:41;-22777.28;;;11.53;48.36
5296;BME280;2670;42.720;23.336;2023-03-15T12:10:41;-22782.44;;;11.70;47.83
5296;BME280;2670;42.720;23.336;2023-03-15T12:13:26;-22786.16;;;11.83;45.85
5296;BME280;2670;42.720;23.336;2023-03-15T12:15:53;-22781.84;;;11.68;46.12
5296;BME280;2670;42.720;23.336;2023-03-15T12:18:27;-22782.31;;;11.70;45.80
5296;BME280;2670;42.720;23.336;2023-03-15T12:21:14;-22778.75;;;11.58;47.01
5296;BME280;2670;42.720;23.336;2023-03-15T12:23:47;-22776.38;;;11.50;50.68
5296;BME280;2670;42.720;23.336;2023-03-15T12:26:23;-22777.88;;;11.55;52.78
5296;BME280;2670;42.720;23.336;2023-03-15T12:29:01;-22773.28;;;11.39;53.50
5296;BME280;2670;42.720;23.336;2023-03-15T12:31:47;-22770.63;;;11.30;54.69
5296;BME280;2670;42.720;23.336;2023-03-15T12:34:26;-22770.63;;;11.30;53.93
5296;BME280;2670;42.720;23.336;2023-03-15T12:36:58;-22767.22;;;11.18;54.75
5296;BME280;2670;42.720;23.336;2023-03-15T12:39:38;-22766.91;;;11.17;54.73
5296;BME280;2670;42.720;23.336;2023-03-15T12:42:11;-22765.44;;;11.12;54.64
5296;BME280;2670;42.720;23.336;2023-03-15T12:44:41;-22764.09;;;11.07;54.79
5296;BME280;2670;42.720;23.336;2023-03-15T12:47:09;-22766.03;;;11.14;54.83
5296;BME280;2670;42.720;23.336;2023-03-15T12:49:40;-22759.97;;;10.93;54.48
5296;BME280;2670;42.720;23.336;2023-03-15T12:52:26;-22760.69;;;10.95;54.87
5296;BME280;2670;42.720;23.336;2023-03-15T12:55:00;-22759.97;;;10.93;55.40
5296;BME280;2670;42.720;23.336;2023-03-15T12:57:36;-22759.34;;;10.91;55.44
5296;BME280;2670;42.720;23.336;2023-03-15T13:00:12;-22761.00;;;10.96;54.62
5296;BME280;2670;42.720;23.336;2023-03-15T13:02:44;-22760.09;;;10.93;55.68
5296;BME280;2670;42.720;23.336;2023-03-15T13:05:17;-22762.75;;;11.03;55.34
5296;BME280;2670;42.720;23.336;2023-03-15T13:07:55;-22758.31;;;10.87;55.88
5296;BME280;2670;42.720;23.336;2023-03-15T13:10:34;-22758.31;;;10.87;56.13
5296;BME280;2670;42.720;23.336;2023-03-15T13:13:09;-22758.03;;;10.86;55.77
5296;BME280;2670;42.720;23.336;2023-03-15T13:15:43;-22759.50;;;10.91;54.56
5296;BME280;2670;42.720;23.336;2023-03-15T13:18:16;-22762.19;;;11.01;54.19
5296;BME280;2670;42.720;23.336;2023-03-15T13:20:52;-22763.38;;;11.05;53.30